Portada
METAR-TAF:

METAR-TAF

Aeroports :

Alton-Saint Louis, Illinois, Estats Units d'Amèrica

latitud: 38-54N, longitud: 090-03W, altitud: 166 m

Observació

L'informe es va fer fa 37 minuts, a les 19:51 UTC
Vent 10 kt del Sud/Sud-Oest
Temperatura 26°C
Humitat 61%
Pressió 1007 hPa
Visibilitat: 16.1 km
Escasses núvols a una alçada de 3500 ft
Cel ennuvolat a una alçada de 20000 ft

METAR: KALN 071951Z 20010KT 10SM FEW035 BKN200 26/18 A2975

Hora: 15:28 (20:28 UTC)


TAF: manca

Observacions i pronòstics meteorològics de més de 4000 aeroports (METAR i TAF).

Les estacions disponibles són els punts grocs i vermells al mapa.

Posi el ratolí al punt desitjat per veure el nom de l'estació.

Feu clic per veure les observacions i els pronòstics meteorològics.

Per canviar el mapa: feu clic els botons verds amb una creu de color negre per apropar; al botó verd amb un guió per allunyar la imatge; o en les fletxes verdes per a mapes adjacents.


METAR-TAF: